Time;durP1;ratioP1;P1;durP2;ratioP2;P2;SDS_P1;SDS_P2;PMS_P1;PMS_P2;Temp;Humidity;BMP_temperature;BMP_pressure;BME280_temperature;BME280_humidity;BME280_pressure;Samples;Min_cycle;Max_cycle;Signal;HPM_P1;HPM_P2
2021/01/30 00:01:53;;;;;;;6.70;3.78;;;;;;;-1.45;100.00;99690.81;6235787;28;20058;-76
2021/01/30 00:04:54;;;;;;;5.13;3.33;;;;;;;-1.36;100.00;99711.25;6246373;28;20049;-76
2021/01/30 00:07:55;;;;;;;6.45;3.35;;;;;;;-1.32;100.00;99723.16;6246647;28;20053;-76
2021/01/30 00:10:56;;;;;;;6.00;3.72;;;;;;;-1.43;100.00;99720.84;6246342;28;20430;-76
2021/01/30 00:13:57;;;;;;;6.90;3.58;;;;;;;-1.33;100.00;99711.19;6246889;28;20104;-77
2021/01/30 00:16:58;;;;;;;8.02;3.63;;;;;;;-1.46;100.00;99709.75;6244019;28;20049;-76
2021/01/30 00:20:00;;;;;;;6.10;3.90;;;;;;;-1.45;100.00;99719.16;6246124;28;20414;-77
2021/01/30 00:23:04;;;;;;;8.50;3.85;;;;;;;-1.47;100.00;99713.19;6246341;28;20103;-76
2021/01/30 00:26:05;;;;;;;8.05;4.13;;;;;;;-1.47;100.00;99724.34;6246166;28;20056;-77
2021/01/30 00:29:06;;;;;;;6.53;4.25;;;;;;;-1.47;100.00;99733.81;6246332;28;20053;-76
2021/01/30 00:32:07;;;;;;;9.35;4.40;;;;;;;-1.48;100.00;99748.44;6240360;28;20490;-77
2021/01/30 00:35:11;;;;;;;7.78;4.22;;;;;;;-1.45;100.00;99753.53;6221821;28;20046;-76
2021/01/30 00:38:12;;;;;;;7.35;4.30;;;;;;;-1.47;100.00;99757.00;6220656;28;20053;-76
2021/01/30 00:41:12;;;;;;;7.10;3.90;;;;;;;-1.45;100.00;99765.53;6221752;28;20104;-75
2021/01/30 00:44:14;;;;;;;7.82;4.03;;;;;;;-1.47;100.00;99765.56;6222621;28;20562;-75
2021/01/30 00:47:15;;;;;;;8.95;4.55;;;;;;;-1.47;100.00;99767.31;6221762;28;20046;-75
2021/01/30 00:50:18;;;;;;;9.52;4.60;;;;;;;-1.34;100.00;99774.75;6221382;28;20050;-75
2021/01/30 00:53:19;;;;;;;7.05;3.92;;;;;;;-1.55;100.00;99783.75;6239315;28;20046;-75
2021/01/30 00:56:19;;;;;;;11.05;5.38;;;;;;;-1.53;100.00;99796.63;6245775;28;20410;-77
2021/01/30 00:59:21;;;;;;;12.23;5.80;;;;;;;-1.55;100.00;99795.78;6245721;28;20100;-75
2021/01/30 01:02:22;;;;;;;10.63;5.63;;;;;;;-1.56;100.00;99806.97;6246151;28;20045;-76
2021/01/30 01:05:24;;;;;;;9.50;4.93;;;;;;;-1.47;100.00;99818.84;6245881;28;20049;-75
2021/01/30 01:08:25;;;;;;;10.38;5.18;;;;;;;-1.43;100.00;99825.63;6245860;28;20050;-74
2021/01/30 01:11:26;;;;;;;13.90;5.75;;;;;;;-1.40;100.00;99834.16;6245545;28;20049;-76
2021/01/30 01:14:27;;;;;;;9.05;5.63;;;;;;;-1.46;100.00;99841.97;6244236;28;20054;-77
2021/01/30 01:17:28;;;;;;;9.35;5.90;;;;;;;-1.47;100.00;99850.59;6245629;28;20059;-76
2021/01/30 01:20:30;;;;;;;11.52;5.95;;;;;;;-1.39;100.00;99864.19;6245441;28;20468;-77
2021/01/30 01:23:31;;;;;;;9.82;5.88;;;;;;;-1.43;100.00;99864.28;6245464;28;20049;-76
2021/01/30 01:26:32;;;;;;;14.43;6.45;;;;;;;-1.35;100.00;99877.88;6245495;28;20053;-77
2021/01/30 01:29:32;;;;;;;11.15;5.88;;;;;;;-1.52;100.00;99867.03;6245538;28;20053;-77
2021/01/30 01:32:33;;;;;;;15.35;6.45;;;;;;;-1.54;100.00;99877.38;6245883;28;20050;-77
2021/01/30 01:35:35;;;;;;;12.88;5.82;;;;;;;-1.44;100.00;99889.19;6245730;28;20076;-76
2021/01/30 01:38:37;;;;;;;11.13;5.95;;;;;;;-1.62;100.00;99890.38;6245107;28;20107;-76
2021/01/30 01:41:38;;;;;;;12.77;6.57;;;;;;;-1.56;100.00;99885.09;6246123;28;20053;-76
2021/01/30 01:44:39;;;;;;;9.45;6.20;;;;;;;-1.55;100.00;99891.09;6244899;28;20410;-77
2021/01/30 01:47:45;;;;;;;8.80;5.35;;;;;;;-1.62;100.00;99910.97;6246010;28;20509;-76
2021/01/30 01:50:49;;;;;;;11.02;6.05;;;;;;;-1.66;100.00;99908.50;6249635;28;20094;-76
2021/01/30 01:53:50;;;;;;;10.27;6.15;;;;;;;-1.53;100.00;99915.13;6250471;28;20042;-77
2021/01/30 01:56:55;;;;;;;11.70;6.63;;;;;;;-1.61;100.00;99922.13;6250903;28;20063;-77
2021/01/30 01:59:57;;;;;;;11.40;5.72;;;;;;;-1.64;100.00;99914.44;6249622;28;20479;-77
2021/01/30 02:02:58;;;;;;;12.27;6.05;;;;;;;-1.63;100.00;99929.91;6249815;28;20107;-76
2021/01/30 02:06:01;;;;;;;12.55;6.80;;;;;;;-1.65;100.00;99925.63;6249422;28;20104;-77
2021/01/30 02:09:05;;;;;;;12.32;7.05;;;;;;;-1.62;100.00;99936.75;6249527;28;20050;-76
2021/01/30 02:12:10;;;;;;;13.98;6.10;;;;;;;-1.67;100.00;99930.81;6249673;28;20049;-76
2021/01/30 02:15:15;;;;;;;11.65;6.35;;;;;;;-1.66;100.00;99931.66;6247868;28;20045;-77
2021/01/30 02:18:27;;;;;;;10.55;6.13;;;;;;;-1.60;100.00;99937.56;6249233;28;20053;-77
2021/01/30 02:21:57;;;;;;;13.07;7.15;;;;;;;-1.66;100.00;99944.53;6248939;28;20071;-76
2021/01/30 02:25:19;;;;;;;15.98;7.15;;;;;;;-1.61;100.00;99943.59;6246626;28;20049;-76
2021/01/30 02:28:27;;;;;;;14.88;7.05;;;;;;;-1.69;100.00;99955.72;6249118;28;20057;-76
2021/01/30 02:31:37;;;;;;;12.32;6.78;;;;;;;-1.67;100.00;99966.03;6249031;28;20057;-76
2021/01/30 02:34:57;;;;;;;14.20;7.43;;;;;;;-1.64;100.00;99971.13;6249128;28;20050;-76
2021/01/30 02:38:06;;;;;;;14.88;7.72;;;;;;;-1.71;100.00;99978.09;6249134;28;20103;-76
2021/01/30 02:41:14;;;;;;;13.60;8.23;;;;;;;-1.72;100.00;99989.28;6248587;28;20560;-76
2021/01/30 02:44:16;;;;;;;16.83;8.50;;;;;;;-1.67;100.00;99996.94;6247187;28;20049;-76
2021/01/30 02:47:21;;;;;;;15.88;8.65;;;;;;;-1.63;100.00;99993.44;6223840;28;20053;-76
2021/01/30 02:50:28;;;;;;;15.68;9.25;;;;;;;-1.60;100.00;100001.09;6225358;28;20049;-76
2021/01/30 02:53:32;;;;;;;16.77;9.25;;;;;;;-1.60;100.00;100007.09;6248620;28;20049;-76
2021/01/30 02:56:33;;;;;;;17.75;10.55;;;;;;;-1.55;100.00;100007.03;6248372;28;20046;-76
2021/01/30 02:59:39;;;;;;;18.88;9.93;;;;;;;-1.55;100.00;100001.88;6247847;28;20136;-76
2021/01/30 03:02:40;;;;;;;18.98;10.35;;;;;;;-1.53;100.00;100015.59;6248118;28;20049;-76
2021/01/30 03:05:42;;;;;;;24.35;11.10;;;;;;;-1.55;100.00;100010.44;6248257;28;20053;-77
2021/01/30 03:08:49;;;;;;;25.65;12.30;;;;;;;-1.67;100.00;100012.41;6247610;28;20053;-76
2021/01/30 03:11:59;;;;;;;23.00;11.93;;;;;;;-1.65;100.00;100016.63;6248379;28;20046;-76
2021/01/30 03:15:06;;;;;;;23.42;12.25;;;;;;;-1.75;100.00;100011.66;6232703;28;20046;-76
2021/01/30 03:18:09;;;;;;;21.65;11.70;;;;;;;-1.75;100.00;100007.34;6223436;28;20061;-76
2021/01/30 03:21:15;;;;;;;21.35;11.52;;;;;;;-1.81;100.00;100021.19;6232767;28;20049;-77
2021/01/30 03:24:17;;;;;;;28.40;13.05;;;;;;;-1.74;100.00;100021.91;6247936;28;20410;-76
2021/01/30 03:27:20;;;;;;;24.55;12.77;;;;;;;-1.74;100.00;100029.66;6247597;28;20080;-76
2021/01/30 03:30:21;;;;;;;21.13;12.07;;;;;;;-1.74;100.00;100045.09;6246991;28;20052;-76
2021/01/30 03:33:23;;;;;;;25.08;13.15;;;;;;;-1.82;100.00;100052.97;6247578;28;20053;-76
2021/01/30 03:36:23;;;;;;;29.75;13.68;;;;;;;-1.65;100.00;100055.28;6247668;28;20502;-76
2021/01/30 03:39:25;;;;;;;24.98;12.00;;;;;;;-1.80;100.00;100061.50;6247120;28;20060;-76
2021/01/30 03:42:26;;;;;;;24.10;12.45;;;;;;;-1.85;100.00;100060.72;6247966;28;20061;-76
2021/01/30 03:45:30;;;;;;;27.63;13.45;;;;;;;-1.86;100.00;100060.75;6230945;28;20053;-76
2021/01/30 03:48:31;;;;;;;27.42;13.52;;;;;;;-1.78;100.00;100058.88;6222972;28;20104;-76
2021/01/30 03:51:32;;;;;;;26.05;13.05;;;;;;;-1.74;100.00;100062.28;6237028;28;20049;-76
2021/01/30 03:54:33;;;;;;;23.45;12.60;;;;;;;-1.76;100.00;100064.03;6247164;28;20041;-76
2021/01/30 03:57:35;;;;;;;26.65;13.38;;;;;;;-1.66;100.00;100081.91;6246904;28;20053;-76
2021/01/30 04:00:35;;;;;;;24.52;12.80;;;;;;;-1.74;100.00;100090.63;6244556;28;20053;-76
2021/01/30 04:03:36;;;;;;;27.42;13.23;;;;;;;-1.73;100.00;100092.31;6247105;28;20057;-76
2021/01/30 04:06:37;;;;;;;27.30;14.00;;;;;;;-1.68;100.00;100093.97;6246336;28;20068;-76
2021/01/30 04:09:39;;;;;;;26.10;13.18;;;;;;;-1.65;100.00;100093.91;6246628;28;20056;-76
2021/01/30 04:12:41;;;;;;;30.25;12.82;;;;;;;-1.54;100.00;100098.94;6246826;28;20422;-76
2021/01/30 04:15:43;;;;;;;27.50;13.25;;;;;;;-1.65;100.00;100108.50;6246676;28;20045;-76
2021/01/30 04:18:44;;;;;;;27.98;12.77;;;;;;;-1.60;100.00;100114.44;6246105;28;20053;-76
2021/01/30 04:21:45;;;;;;;28.23;13.25;;;;;;;-1.64;100.00;100115.38;6228383;28;20053;-76
2021/01/30 04:24:47;;;;;;;28.48;12.68;;;;;;;-1.71;100.00;100116.34;6225267;28;20060;-76
2021/01/30 04:27:48;;;;;;;31.70;14.68;;;;;;;-1.70;100.00;100112.88;6246281;28;20068;-76
2021/01/30 04:30:49;;;;;;;29.98;13.65;;;;;;;-1.63;100.00;100127.41;6246261;28;20053;-76
2021/01/30 04:33:51;;;;;;;25.40;13.25;;;;;;;-1.57;100.00;100120.41;6272593;23;20056;-77
2021/01/30 04:36:52;;;;;;;28.35;12.65;;;;;;;-1.58;100.00;100113.56;6271366;28;20442;-77
2021/01/30 04:39:53;;;;;;;30.58;13.63;;;;;;;-1.60;100.00;100115.28;6270814;28;20052;-77
2021/01/30 04:43:02;;;;;;;25.58;13.50;;;;;;;-1.45;100.00;100115.94;6271438;28;20053;-76
2021/01/30 04:46:10;;;;;;;22.77;12.43;;;;;;;-1.61;100.00;100118.75;6245623;28;20124;-77
2021/01/30 04:49:20;;;;;;;22.35;12.23;;;;;;;-1.55;100.00;100112.66;6246321;28;20056;-77
2021/01/30 04:52:35;;;;;;;26.20;13.52;;;;;;;-1.59;100.00;100113.56;6245936;28;20103;-76
2021/01/30 04:55:52;;;;;;;27.30;13.48;;;;;;;-1.55;100.00;100116.09;6246280;28;20528;-76
2021/01/30 04:59:02;;;;;;;31.60;14.63;;;;;;;-1.59;100.00;100117.03;6245857;28;20057;-77
2021/01/30 05:02:11;;;;;;;26.40;13.35;;;;;;;-1.58;100.00;100108.41;6246215;28;20045;-77
2021/01/30 05:05:20;;;;;;;34.05;15.05;;;;;;;-1.63;100.00;100125.66;6246195;28;20096;-77
2021/01/30 05:08:28;;;;;;;33.25;14.35;;;;;;;-1.66;100.00;100124.84;6245998;28;20056;-74
2021/01/30 05:11:32;;;;;;;31.00;14.50;;;;;;;-1.51;100.00;100129.78;6245735;28;20060;-75
2021/01/30 05:14:38;;;;;;;28.45;13.85;;;;;;;-1.65;100.00;100127.41;6246036;28;20049;-76
2021/01/30 05:17:51;;;;;;;25.08;14.05;;;;;;;-1.65;100.00;100129.97;6245340;28;20128;-75
2021/01/30 05:21:00;;;;;;;28.92;14.00;;;;;;;-1.55;100.00;100135.84;6245420;28;20061;-75
2021/01/30 05:24:01;;;;;;;30.08;13.68;;;;;;;-1.71;100.00;100142.09;6247455;28;20057;-75
2021/01/30 05:27:24;;;;;;;27.25;13.90;;;;;;;-1.84;100.00;100151.69;6250562;28;20046;-75
2021/01/30 05:30:34;;;;;;;30.20;14.68;;;;;;;-1.88;100.00;100155.19;6250293;28;20494;-76
2021/01/30 05:33:49;;;;;;;29.30;13.82;;;;;;;-1.87;100.00;100157.72;6250382;28;20053;-76
2021/01/30 05:36:55;;;;;;;33.45;15.15;;;;;;;-1.99;100.00;100157.88;6244563;28;20044;-75
2021/01/30 05:40:20;;;;;;;33.58;15.57;;;;;;;-2.00;100.00;100157.88;6248758;28;20071;-75
2021/01/30 05:43:31;;;;;;;33.00;14.48;;;;;;;-2.01;100.00;100159.59;6247203;28;20052;-77
2021/01/30 05:46:32;;;;;;;30.10;14.82;;;;;;;-2.03;100.00;100163.09;6249448;28;20050;-77
2021/01/30 05:49:40;;;;;;;31.80;15.77;;;;;;;-2.01;100.00;100166.47;6249863;28;20057;-76
2021/01/30 05:52:42;;;;;;;28.00;14.40;;;;;;;-2.01;100.00;100162.19;6250134;28;20053;-77
2021/01/30 05:55:43;;;;;;;33.28;15.23;;;;;;;-2.00;100.00;100168.19;6249018;28;20056;-76
2021/01/30 05:58:47;;;;;;;29.52;14.48;;;;;;;-2.05;100.00;100179.38;6261748;28;20063;-76
2021/01/30 06:01:48;;;;;;;31.02;15.05;;;;;;;-2.05;100.00;100171.66;6272867;28;20041;-77
2021/01/30 06:04:49;;;;;;;29.25;14.50;;;;;;;-2.10;100.00;100170.84;6227025;28;20068;-76
2021/01/30 06:07:50;;;;;;;34.15;15.32;;;;;;;-2.06;100.00;100172.53;6248635;28;20052;-77
2021/01/30 06:10:54;;;;;;;30.05;14.27;;;;;;;-2.05;100.00;100175.97;6248433;28;20049;-76
2021/01/30 06:13:59;;;;;;;29.58;14.15;;;;;;;-1.94;100.00;100181.00;6248682;28;20049;-76
2021/01/30 06:17:00;;;;;;;36.03;16.10;;;;;;;-2.04;100.00;100187.97;6248674;28;20045;-76
2021/01/30 06:20:09;;;;;;;29.98;15.30;;;;;;;-2.06;100.00;100174.25;6248610;28;20053;-75
2021/01/30 06:23:12;;;;;;;32.55;15.80;;;;;;;-2.10;100.00;100183.72;6248861;28;20124;-75
2021/01/30 06:26:19;;;;;;;36.17;15.93;;;;;;;-2.11;100.00;100179.47;6247747;28;20552;-77
2021/01/30 06:29:34;;;;;;;28.48;14.50;;;;;;;-2.15;100.00;100187.22;6248756;28;20062;-75
2021/01/30 06:32:38;;;;;;;27.42;13.40;;;;;;;-2.16;100.00;100191.53;6249232;28;20702;-75
2021/01/30 06:35:40;;;;;;;27.40;13.60;;;;;;;-2.21;100.00;100198.44;6247633;28;20046;-75
2021/01/30 06:38:44;;;;;;;26.83;13.70;;;;;;;-2.22;100.00;100195.91;6248272;28;20663;-75
2021/01/30 06:41:53;;;;;;;30.48;14.95;;;;;;;-2.31;100.00;100197.69;6249032;28;20473;-74
2021/01/30 06:45:02;;;;;;;31.80;15.23;;;;;;;-2.33;100.00;100199.41;6248732;28;20096;-75
2021/01/30 06:48:08;;;;;;;32.88;14.70;;;;;;;-2.34;100.00;100214.88;6248706;28;20700;-76
2021/01/30 06:51:24;;;;;;;29.73;14.88;;;;;;;-2.37;100.00;100209.75;6247708;28;20531;-75
2021/01/30 06:54:28;;;;;;;36.92;15.27;;;;;;;-2.39;100.00;100212.34;6248599;28;20049;-75
2021/01/30 06:57:29;;;;;;;37.42;15.70;;;;;;;-2.40;100.00;100207.22;6247049;28;20045;-77
2021/01/30 07:00:32;;;;;;;37.97;17.02;;;;;;;-2.43;100.00;100214.97;6248254;28;20037;-75
2021/01/30 07:03:51;;;;;;;43.78;17.38;;;;;;;-2.45;100.00;100214.97;6248490;28;20042;-75
2021/01/30 07:07:01;;;;;;;37.47;16.25;;;;;;;-2.44;100.00;100218.41;6248072;28;20430;-75
2021/01/30 07:10:21;;;;;;;35.67;16.27;;;;;;;-2.44;100.00;100219.25;6248129;28;20072;-77
2021/01/30 07:13:32;;;;;;;;;;;;;;;-2.44;100.00;100213.25;6248816;28;20085;-75
2021/01/30 07:16:42;;;;;;;30.05;13.40;;;;;;;-2.40;100.00;100218.34;6247914;28;19928;-75
2021/01/30 07:19:58;;;;;;;31.15;15.18;;;;;;;-2.39;100.00;100221.78;6247123;28;20461;-75
2021/01/30 07:23:04;;;;;;;32.75;15.55;;;;;;;-2.40;100.00;100228.66;6248280;28;20060;-75
2021/01/30 07:26:12;;;;;;;31.48;14.23;;;;;;;-2.45;100.00;100226.97;6247727;28;20687;-75
2021/01/30 07:29:22;;;;;;;34.22;15.60;;;;;;;-2.51;100.00;100225.31;6247341;28;20429;-76
2021/01/30 07:32:28;;;;;;;32.10;14.85;;;;;;;-2.59;100.00;100222.81;6247895;28;20060;-75
2021/01/30 07:35:35;;;;;;;29.45;14.25;;;;;;;-2.59;100.00;100225.38;6247698;28;20057;-75
2021/01/30 07:38:43;;;;;;;31.83;15.77;;;;;;;-2.57;100.00;100226.22;6247337;28;20049;-76
2021/01/30 07:41:52;;;;;;;36.33;15.93;;;;;;;-2.57;100.00;100226.22;6247859;28;20057;-76
2021/01/30 07:45:05;;;;;;;31.73;14.57;;;;;;;-2.57;100.00;100227.94;6247382;28;20049;-76
2021/01/30 07:48:24;;;;;;;33.92;16.10;;;;;;;-2.58;100.00;100233.94;6246846;28;20053;-75
2021/01/30 07:51:29;;;;;;;37.80;16.67;;;;;;;-2.53;100.00;100241.63;6246678;28;20053;-74
2021/01/30 07:54:30;;;;;;;40.17;17.98;;;;;;;-2.46;100.00;100243.28;6247379;28;20299;-75
2021/01/30 07:57:56;;;;;;;39.75;17.23;;;;;;;-2.43;100.00;100244.09;6246941;28;20049;-74
2021/01/30 08:01:14;;;;;;;35.78;16.25;;;;;;;-2.36;100.00;100244.94;6246783;28;20057;-74
2021/01/30 08:04:48;;;;;;;36.35;17.38;;;;;;;-2.32;100.00;100247.47;6249324;28;20539;-75
2021/01/30 08:07:55;;;;;;;39.47;17.40;;;;;;;-2.25;100.00;100248.25;6226062;28;20099;-74
2021/01/30 08:11:01;;;;;;;42.33;19.13;;;;;;;-2.14;100.00;100254.13;6263124;28;20052;-76
2021/01/30 08:14:19;;;;;;;41.45;18.20;;;;;;;-2.01;100.00;100244.56;6271586;28;20052;-74
2021/01/30 08:17:36;;;;;;;39.83;18.67;;;;;;;-1.94;100.00;100250.53;6271311;28;20052;-75
2021/01/30 08:20:43;;;;;;;37.55;17.70;;;;;;;-1.82;100.00;100250.38;6245279;28;20045;-75
2021/01/30 08:23:53;;;;;;;38.20;18.08;;;;;;;-1.83;100.00;100259.81;6246756;28;20056;-74
2021/01/30 08:26:58;;;;;;;35.63;17.02;;;;;;;-1.75;100.00;100253.75;6246484;28;20049;-75
2021/01/30 08:30:03;;;;;;;38.10;17.40;;;;;;;-1.71;100.00;100258.84;6245699;28;20045;-75
2021/01/30 08:33:06;;;;;;;37.30;18.20;;;;;;;-1.65;100.00;100265.66;6246449;28;20465;-74
2021/01/30 08:36:33;;;;;;;43.35;20.10;;;;;;;-1.77;100.00;100260.63;6246552;28;20042;-74
2021/01/30 08:39:36;;;;;;;52.30;22.20;;;;;;;-1.81;100.00;100259.81;6246002;28;20068;-75
2021/01/30 08:42:51;;;;;;;54.25;24.30;;;;;;;-1.69;100.00;100259.66;6246625;28;20053;-74
2021/01/30 08:45:52;;;;;;;85.18;35.70;;;;;;;-1.73;100.00;100265.72;6245883;28;20076;-75
2021/01/30 08:49:05;;;;;;;48.47;20.63;;;;;;;-1.66;100.00;100275.09;6246371;28;20053;-74
2021/01/30 08:52:22;;;;;;;54.45;22.08;;;;;;;-1.65;100.00;100268.22;6257955;28;20433;-74
2021/01/30 08:55:50;;;;;;;50.92;23.98;;;;;;;-1.64;100.00;100272.50;6270872;28;20045;-74
2021/01/30 08:58:51;;;;;;;50.67;20.95;;;;;;;-1.63;100.00;100284.53;6248042;28;20100;-73
2021/01/30 09:01:52;;;;;;;49.95;19.98;;;;;;;-1.62;100.00;100273.34;6251052;28;20056;-73
2021/01/30 09:05:00;;;;;;;53.97;23.48;;;;;;;-1.61;100.00;100277.63;6250714;28;20487;-74
2021/01/30 09:08:36;;;;;;;65.68;26.80;;;;;;;-1.72;100.00;100272.59;6260824;28;20344;-72
2021/01/30 09:11:40;;;;;;;56.88;25.35;;;;;;;-1.63;100.00;100279.38;6250373;28;20049;-72
2021/01/30 09:14:41;;;;;;;48.45;20.25;;;;;;;-1.58;100.00;100275.03;6249992;28;20052;-72
2021/01/30 09:17:43;;;;;;;46.45;19.92;;;;;;;-1.66;100.00;100274.25;6249672;28;20054;-72
2021/01/30 09:20:54;;;;;;;56.35;24.00;;;;;;;-1.68;100.00;100276.84;6250063;28;20102;-73
2021/01/30 09:24:21;;;;;;;52.50;24.27;;;;;;;-1.60;100.00;100271.59;6250866;28;20430;-74
2021/01/30 09:27:23;;;;;;;56.10;25.20;;;;;;;-1.56;100.00;100278.41;6250355;28;20057;-73
2021/01/30 09:30:36;;;;;;;56.03;23.52;;;;;;;-1.45;100.00;100286.00;6250192;28;20053;-74
2021/01/30 09:33:41;;;;;;;51.75;21.27;;;;;;;-1.50;100.00;100288.66;6250222;28;20057;-74
2021/01/30 09:36:47;;;;;;;52.38;23.70;;;;;;;-1.53;100.00;100288.69;6250324;28;20494;-74
2021/01/30 09:39:55;;;;;;;44.05;18.90;;;;;;;-1.62;100.00;100296.53;6250435;28;20132;-73
2021/01/30 09:42:58;;;;;;;46.70;19.98;;;;;;;-1.52;100.00;100300.72;6250657;28;20095;-73
2021/01/30 09:46:02;;;;;;;45.08;20.13;;;;;;;-1.64;100.00;100296.53;6249720;28;20502;-73
2021/01/30 09:49:06;;;;;;;42.78;18.20;;;;;;;-1.73;100.00;100299.19;6250028;28;20054;-72
2021/01/30 09:52:08;;;;;;;46.58;18.42;;;;;;;-1.63;100.00;100300.84;6249639;28;20056;-72
2021/01/30 09:55:12;;;;;;;43.63;19.10;;;;;;;-1.64;100.00;100304.25;6250154;28;20050;-74
2021/01/30 09:58:20;;;;;;;321.52;73.93;;;;;;;-1.58;100.00;100308.53;6249641;28;20057;-71
2021/01/30 10:01:30;;;;;;;201.37;59.13;;;;;;;-1.66;100.00;100310.31;6249506;28;20052;-71
2021/01/30 10:04:31;;;;;;;113.97;35.88;;;;;;;-1.63;100.00;100310.28;6248949;28;20296;-72
2021/01/30 10:07:33;;;;;;;186.88;52.20;;;;;;;-1.63;100.00;100310.28;6264252;28;20102;-72
2021/01/30 10:10:35;;;;;;;147.88;47.05;;;;;;;-1.58;100.00;100308.53;6262323;28;20056;-71
2021/01/30 10:13:38;;;;;;;85.03;33.30;;;;;;;-1.52;100.00;100312.75;6263544;28;20045;-74
2021/01/30 10:16:39;;;;;;;53.88;21.73;;;;;;;-1.58;100.00;100309.38;6255485;28;20049;-73
2021/01/30 10:19:40;;;;;;;50.13;21.67;;;;;;;-1.44;100.00;100319.53;6253558;28;20046;-73
2021/01/30 10:22:44;;;;;;;50.10;21.33;;;;;;;-1.51;100.00;100309.28;6246275;28;20056;-72
2021/01/30 10:25:45;;;;;;;43.92;22.30;;;;;;;-1.48;100.00;100304.97;6244368;28;20057;-74
2021/01/30 10:28:51;;;;;;;49.33;21.90;;;;;;;-1.49;100.00;100305.84;6256315;28;20137;-73
2021/01/30 10:31:55;;;;;;;51.30;23.00;;;;;;;-1.41;100.00;100306.59;6258718;28;20494;-72
2021/01/30 10:35:00;;;;;;;48.55;19.02;;;;;;;-1.35;100.00;100300.53;6282964;22;20076;-76
2021/01/30 10:38:08;;;;;;;47.25;18.67;;;;;;;-1.39;100.00;100302.28;6248468;28;20049;-76
2021/01/30 10:41:16;;;;;;;46.38;20.73;;;;;;;-1.33;100.00;100307.34;6248639;28;20053;-77
2021/01/30 10:44:27;;;;;;;40.45;17.17;;;;;;;-1.35;100.00;100309.09;6248897;28;20477;-76
2021/01/30 10:47:28;;;;;;;39.33;17.85;;;;;;;-1.29;100.00;100313.31;6248717;28;20053;-76
2021/01/30 10:50:32;;;;;;;44.30;19.42;;;;;;;-1.26;100.00;100315.88;6249408;28;20053;-74
2021/01/30 10:53:35;;;;;;;39.38;17.63;;;;;;;-1.20;100.00;100302.06;6248795;28;20060;-76
2021/01/30 10:56:37;;;;;;;38.63;17.70;;;;;;;-1.21;100.00;100303.78;6248397;28;20107;-76
2021/01/30 10:59:46;;;;;;;41.08;17.73;;;;;;;-1.16;100.00;100298.56;6247847;28;20101;-77
2021/01/30 11:02:49;;;;;;;44.08;18.92;;;;;;;-1.13;100.00;100303.69;6248570;28;20545;-77
2021/01/30 11:05:51;;;;;;;35.88;17.83;;;;;;;-1.08;100.00;100302.75;6247620;28;20388;-78
2021/01/30 11:08:51;;;;;;;38.20;17.40;;;;;;;-1.09;100.00;100302.75;6246989;28;20422;-77
2021/01/30 11:12:09;;;;;;;63.05;25.65;;;;;;;-1.01;100.00;100295.78;6248388;28;20136;-76
2021/01/30 11:15:15;;;;;;;68.68;26.80;;;;;;;-1.07;100.00;100301.88;6247941;28;20053;-77
2021/01/30 11:18:33;;;;;;;49.15;20.50;;;;;;;-1.03;100.00;100294.97;6248088;28;20049;-77
2021/01/30 11:21:37;;;;;;;82.15;29.75;;;;;;;-1.03;100.00;100288.06;6236986;28;20062;-77
2021/01/30 11:24:46;;;;;;;46.50;21.00;;;;;;;-0.99;100.00;100296.63;6243688;28;20049;-76
2021/01/30 11:27:49;;;;;;;;;;;;;;;-1.02;100.00;100302.66;6248150;28;20096;-73
2021/01/30 11:30:50;;;;;;;32.67;15.40;;;;;;;-1.05;100.00;100307.84;6245847;28;20377;-74
2021/01/30 11:33:53;;;;;;;33.25;16.23;;;;;;;-1.17;100.00;100302.03;6247673;28;20061;-73
2021/01/30 11:36:54;;;;;;;33.38;18.20;;;;;;;-1.21;100.00;100297.78;6246150;28;20037;-73
2021/01/30 11:39:55;;;;;;;34.50;18.02;;;;;;;-1.20;100.00;100302.06;6247465;28;20045;-75
2021/01/30 11:42:57;;;;;;;37.80;17.17;;;;;;;-1.18;100.00;100287.41;6246923;28;20049;-76
2021/01/30 11:45:58;;;;;;;30.88;15.55;;;;;;;-1.13;100.00;100293.38;6245237;28;20056;-77
2021/01/30 11:48:59;;;;;;;35.70;16.00;;;;;;;-1.10;100.00;100276.13;6230089;28;20053;-82
2021/01/30 11:52:00;;;;;;;31.40;17.20;;;;;;;-1.11;100.00;100278.72;6265566;28;20429;-79
2021/01/30 11:55:03;;;;;;;30.73;17.15;;;;;;;-1.12;100.00;100270.16;6236327;28;20046;-82
2021/01/30 11:58:05;;;;;;;22.75;12.73;;;;;;;-1.04;99.24;100272.63;6228879;28;20060;-83
2021/01/30 12:01:06;;;;;;;22.52;14.15;;;;;;;-1.04;99.08;100272.63;6246259;28;20050;-82
2021/01/30 12:04:07;;;;;;;22.88;12.15;;;;;;;-0.96;98.54;100283.66;6245939;28;20049;-84
2021/01/30 12:07:08;;;;;;;23.48;12.77;;;;;;;-0.92;99.03;100277.59;6241890;28;20042;-79
2021/01/30 12:10:11;;;;;;;18.73;10.95;;;;;;;-0.88;99.26;100279.25;6240193;28;20061;-78
2021/01/30 12:13:12;;;;;;;18.70;10.88;;;;;;;-0.86;99.24;100287.00;6222388;28;20050;-79
2021/01/30 12:16:15;;;;;;;17.58;9.63;;;;;;;-0.83;99.40;100289.50;6242576;28;20107;-79
2021/01/30 12:19:16;;;;;;;17.63;9.88;;;;;;;-0.85;99.43;100280.97;6246556;28;20058;-78
2021/01/30 12:22:17;;;;;;;18.52;9.85;;;;;;;-0.84;99.69;100285.25;6246704;28;20053;-78
2021/01/30 12:25:19;;;;;;;18.50;9.75;;;;;;;-0.84;99.52;100282.66;6246640;28;20056;-79
2021/01/30 12:28:23;;;;;;;19.50;10.35;;;;;;;-0.79;99.37;100273.97;6247001;28;20053;-79
2021/01/30 12:31:24;;;;;;;15.52;8.93;;;;;;;-0.81;99.23;100274.88;6245892;28;20485;-80
2021/01/30 12:34:25;;;;;;;18.13;10.60;;;;;;;-0.81;99.15;100280.91;6246295;28;20091;-80
2021/01/30 12:37:26;;;;;;;20.77;10.35;;;;;;;-0.76;99.58;100270.50;6246139;28;20056;-81
2021/01/30 12:40:29;;;;;;;16.80;9.75;;;;;;;-0.77;98.34;100273.97;6246272;28;20060;-81
2021/01/30 12:43:30;;;;;;;17.27;10.13;;;;;;;-0.69;99.44;100277.25;6244940;28;20103;-80
2021/01/30 12:46:43;;;;;;;19.45;10.48;;;;;;;-0.63;98.19;100266.03;6246062;28;20056;-81
2021/01/30 12:49:44;;;;;;;69.85;27.30;;;;;;;-0.72;98.72;100267.00;6245791;28;20073;-81
2021/01/30 12:52:45;;;;;;;139.07;45.67;;;;;;;-0.69;98.99;100248.88;6238913;28;20441;-79
2021/01/30 12:55:46;;;;;;;43.58;20.80;;;;;;;-0.68;98.93;100252.31;6246138;28;20053;-78
2021/01/30 12:58:48;;;;;;;40.75;21.73;;;;;;;-0.66;99.13;100250.59;6245799;28;20049;-79
2021/01/30 13:01:50;;;;;;;22.10;12.55;;;;;;;-0.68;98.84;100247.16;6245334;28;20068;-78
2021/01/30 13:04:51;;;;;;;24.17;14.15;;;;;;;-0.65;98.46;100242.81;6244642;28;20432;-78
2021/01/30 13:07:52;;;;;;;30.10;14.68;;;;;;;-0.67;97.41;100246.31;6245470;28;20081;-80
2021/01/30 13:10:53;;;;;;;45.67;24.58;;;;;;;-0.67;97.81;100251.47;6245931;28;20136;-79
2021/01/30 13:13:55;;;;;;;34.67;17.92;;;;;;;-0.67;98.38;100236.81;6246059;28;20140;-80
2021/01/30 13:16:56;;;;;;;36.47;17.98;;;;;;;-0.78;98.64;100236.97;6245924;28;20049;-79
2021/01/30 13:19:57;;;;;;;32.80;17.25;;;;;;;-0.73;98.47;100236.91;6245837;28;20111;-80
2021/01/30 13:22:58;;;;;;;37.03;18.35;;;;;;;-0.78;98.72;100231.81;6252877;28;20102;-80
2021/01/30 13:25:59;;;;;;;47.78;21.70;;;;;;;-0.68;97.95;100224.81;6270342;28;20122;-80
2021/01/30 13:29:00;;;;;;;18.27;11.10;;;;;;;-0.64;96.68;100223.00;6244751;28;20049;-80
2021/01/30 13:32:03;;;;;;;27.52;14.02;;;;;;;-0.81;96.77;100225.88;6245917;28;20057;-79
2021/01/30 13:35:05;;;;;;;23.60;12.23;;;;;;;-0.86;97.55;100222.53;6244964;28;20056;-82
2021/01/30 13:38:06;;;;;;;20.65;12.85;;;;;;;-0.85;98.66;100219.06;6238816;28;20045;-81
2021/01/30 13:41:07;;;;;;;21.92;12.75;;;;;;;-0.86;98.80;100222.53;6245338;28;20072;-81
2021/01/30 13:44:08;;;;;;;24.60;13.85;;;;;;;-0.84;98.82;100221.59;6245797;28;20053;-85
2021/01/30 13:47:09;;;;;;;41.88;21.70;;;;;;;-0.87;99.28;100208.75;6250006;28;20052;-82
2021/01/30 13:50:12;;;;;;;22.60;12.63;;;;;;;-0.95;97.99;100210.63;6249842;28;20076;-80
2021/01/30 13:53:13;;;;;;;20.70;13.07;;;;;;;-0.98;98.29;100212.38;6263119;28;20057;-77
2021/01/30 13:56:14;;;;;;;21.63;12.52;;;;;;;-0.92;98.94;100204.53;6249739;28;20045;-82
2021/01/30 13:59:16;;;;;;;26.05;13.10;;;;;;;-0.95;98.99;100220.94;6249273;28;20107;-81